sensor_id;sensor_type;location;lat;lon;timestamp;P1;durP1;ratioP1;P2;durP2;ratioP2
76745;SDS011;65671;49.976;20.038;2022-12-11T00:01:10;35.60;;;14.80;;
76745;SDS011;65671;49.976;20.038;2022-12-11T00:03:37;29.08;;;13.65;;
76745;SDS011;65671;49.976;20.038;2022-12-11T00:06:04;29.08;;;13.70;;
76745;SDS011;65671;49.976;20.038;2022-12-11T00:08:34;32.20;;;13.30;;
76745;SDS011;65671;49.976;20.038;2022-12-11T00:11:00;24.13;;;11.27;;
76745;SDS011;65671;49.976;20.038;2022-12-11T00:13:26;34.17;;;14.52;;
76745;SDS011;65671;49.976;20.038;2022-12-11T00:15:52;30.90;;;13.65;;
76745;SDS011;65671;49.976;20.038;2022-12-11T00:18:17;34.03;;;14.77;;
76745;SDS011;65671;49.976;20.038;2022-12-11T00:20:43;35.03;;;16.45;;
76745;SDS011;65671;49.976;20.038;2022-12-11T00:23:09;29.90;;;12.70;;
76745;SDS011;65671;49.976;20.038;2022-12-11T00:25:39;36.38;;;14.65;;
76745;SDS011;65671;49.976;20.038;2022-12-11T00:28:06;36.10;;;14.93;;
76745;SDS011;65671;49.976;20.038;2022-12-11T00:30:32;30.90;;;13.13;;
76745;SDS011;65671;49.976;20.038;2022-12-11T00:32:57;39.05;;;15.40;;
76745;SDS011;65671;49.976;20.038;2022-12-11T00:35:23;33.60;;;15.10;;
76745;SDS011;65671;49.976;20.038;2022-12-11T00:37:48;27.35;;;13.75;;
76745;SDS011;65671;49.976;20.038;2022-12-11T00:40:14;28.13;;;10.40;;
76745;SDS011;65671;49.976;20.038;2022-12-11T00:42:39;37.20;;;13.45;;
76745;SDS011;65671;49.976;20.038;2022-12-11T00:45:05;23.95;;;12.05;;
76745;SDS011;65671;49.976;20.038;2022-12-11T00:47:30;26.17;;;12.93;;
76745;SDS011;65671;49.976;20.038;2022-12-11T00:49:56;28.67;;;15.43;;
76745;SDS011;65671;49.976;20.038;2022-12-11T00:52:22;23.23;;;13.32;;
76745;SDS011;65671;49.976;20.038;2022-12-11T00:54:47;24.80;;;11.70;;
76745;SDS011;65671;49.976;20.038;2022-12-11T00:57:12;27.85;;;12.23;;
76745;SDS011;65671;49.976;20.038;2022-12-11T00:59:38;22.52;;;10.40;;
76745;SDS011;65671;49.976;20.038;2022-12-11T01:02:03;24.80;;;11.48;;
76745;SDS011;65671;49.976;20.038;2022-12-11T01:04:29;28.67;;;12.98;;
76745;SDS011;65671;49.976;20.038;2022-12-11T01:06:54;22.52;;;11.13;;
76745;SDS011;65671;49.976;20.038;2022-12-11T01:09:20;22.27;;;12.23;;
76745;SDS011;65671;49.976;20.038;2022-12-11T01:12:04;25.95;;;12.07;;
76745;SDS011;65671;49.976;20.038;2022-12-11T01:14:30;27.85;;;11.55;;
76745;SDS011;65671;49.976;20.038;2022-12-11T01:16:55;22.05;;;10.70;;
76745;SDS011;65671;49.976;20.038;2022-12-11T01:19:21;28.73;;;13.05;;
76745;SDS011;65671;49.976;20.038;2022-12-11T01:21:47;24.63;;;11.85;;
76745;SDS011;65671;49.976;20.038;2022-12-11T01:24:12;28.13;;;13.15;;
76745;SDS011;65671;49.976;20.038;2022-12-11T01:26:37;19.10;;;9.77;;
76745;SDS011;65671;49.976;20.038;2022-12-11T01:29:03;25.00;;;11.57;;
76745;SDS011;65671;49.976;20.038;2022-12-11T01:31:28;29.48;;;12.23;;
76745;SDS011;65671;49.976;20.038;2022-12-11T01:33:54;23.52;;;11.13;;
76745;SDS011;65671;49.976;20.038;2022-12-11T01:36:20;25.88;;;11.98;;
76745;SDS011;65671;49.976;20.038;2022-12-11T01:38:47;25.02;;;11.95;;
76745;SDS011;65671;49.976;20.038;2022-12-11T01:41:14;21.15;;;10.90;;
76745;SDS011;65671;49.976;20.038;2022-12-11T01:46:26;22.02;;;10.95;;
76745;SDS011;65671;49.976;20.038;2022-12-11T01:48:52;30.13;;;12.52;;
76745;SDS011;65671;49.976;20.038;2022-12-11T01:51:18;22.75;;;10.77;;
76745;SDS011;65671;49.976;20.038;2022-12-11T01:53:46;23.08;;;11.70;;
76745;SDS011;65671;49.976;20.038;2022-12-11T01:56:18;18.95;;;9.15;;
76745;SDS011;65671;49.976;20.038;2022-12-11T01:58:51;24.98;;;11.60;;
76745;SDS011;65671;49.976;20.038;2022-12-11T02:01:25;18.85;;;9.70;;
76745;SDS011;65671;49.976;20.038;2022-12-11T02:03:56;19.20;;;9.45;;
76745;SDS011;65671;49.976;20.038;2022-12-11T02:06:31;23.45;;;10.98;;
76745;SDS011;65671;49.976;20.038;2022-12-11T02:09:03;19.35;;;9.55;;
76745;SDS011;65671;49.976;20.038;2022-12-11T02:11:34;25.40;;;11.40;;
76745;SDS011;65671;49.976;20.038;2022-12-11T02:14:36;24.70;;;10.25;;
76745;SDS011;65671;49.976;20.038;2022-12-11T02:19:58;22.70;;;10.07;;
76745;SDS011;65671;49.976;20.038;2022-12-11T02:22:50;19.80;;;9.60;;
76745;SDS011;65671;49.976;20.038;2022-12-11T02:25:31;22.77;;;10.20;;
76745;SDS011;65671;49.976;20.038;2022-12-11T02:28:12;19.58;;;10.30;;
76745;SDS011;65671;49.976;20.038;2022-12-11T02:31:02;18.45;;;9.07;;
76745;SDS011;65671;49.976;20.038;2022-12-11T02:36:13;20.40;;;9.68;;
76745;SDS011;65671;49.976;20.038;2022-12-11T02:38:42;21.63;;;10.95;;
76745;SDS011;65671;49.976;20.038;2022-12-11T02:43:41;16.73;;;7.68;;
76745;SDS011;65671;49.976;20.038;2022-12-11T02:46:08;23.48;;;9.93;;
76745;SDS011;65671;49.976;20.038;2022-12-11T02:48:36;22.55;;;7.60;;
76745;SDS011;65671;49.976;20.038;2022-12-11T02:51:04;19.55;;;9.43;;
76745;SDS011;65671;49.976;20.038;2022-12-11T02:53:33;17.90;;;9.43;;
76745;SDS011;65671;49.976;20.038;2022-12-11T02:56:07;17.50;;;9.00;;
76745;SDS011;65671;49.976;20.038;2022-12-11T02:58:37;17.88;;;8.32;;
76745;SDS011;65671;49.976;20.038;2022-12-11T03:01:10;11.02;;;5.68;;
76745;SDS011;65671;49.976;20.038;2022-12-11T03:03:36;20.02;;;8.77;;
76745;SDS011;65671;49.976;20.038;2022-12-11T03:06:02;18.52;;;9.32;;
76745;SDS011;65671;49.976;20.038;2022-12-11T03:10:53;18.23;;;8.00;;
76745;SDS011;65671;49.976;20.038;2022-12-11T03:13:19;20.60;;;9.25;;
76745;SDS011;65671;49.976;20.038;2022-12-11T03:21:47;18.77;;;9.63;;
76745;SDS011;65671;49.976;20.038;2022-12-11T03:26:58;21.65;;;10.32;;
76745;SDS011;65671;49.976;20.038;2022-12-11T03:29:35;19.90;;;8.15;;
76745;SDS011;65671;49.976;20.038;2022-12-11T03:32:08;19.52;;;7.90;;
76745;SDS011;65671;49.976;20.038;2022-12-11T03:34:54;18.10;;;9.55;;
76745;SDS011;65671;49.976;20.038;2022-12-11T03:37:24;20.50;;;9.90;;
76745;SDS011;65671;49.976;20.038;2022-12-11T03:39:55;13.80;;;6.78;;
76745;SDS011;65671;49.976;20.038;2022-12-11T03:42:25;15.60;;;7.15;;
76745;SDS011;65671;49.976;20.038;2022-12-11T03:44:51;15.70;;;8.90;;
76745;SDS011;65671;49.976;20.038;2022-12-11T03:47:21;19.33;;;9.13;;
76745;SDS011;65671;49.976;20.038;2022-12-11T03:49:49;16.70;;;9.13;;
76745;SDS011;65671;49.976;20.038;2022-12-11T03:52:17;19.00;;;9.32;;
76745;SDS011;65671;49.976;20.038;2022-12-11T03:54:44;14.70;;;8.18;;
76745;SDS011;65671;49.976;20.038;2022-12-11T03:57:12;17.42;;;8.65;;
76745;SDS011;65671;49.976;20.038;2022-12-11T03:59:40;19.65;;;8.88;;
76745;SDS011;65671;49.976;20.038;2022-12-11T04:02:06;18.10;;;8.35;;
76745;SDS011;65671;49.976;20.038;2022-12-11T04:04:38;17.00;;;7.53;;
76745;SDS011;65671;49.976;20.038;2022-12-11T04:07:05;12.65;;;6.35;;
76745;SDS011;65671;49.976;20.038;2022-12-11T04:09:32;13.90;;;6.35;;
76745;SDS011;65671;49.976;20.038;2022-12-11T04:11:58;13.63;;;6.78;;
76745;SDS011;65671;49.976;20.038;2022-12-11T04:14:23;15.82;;;8.00;;
76745;SDS011;65671;49.976;20.038;2022-12-11T04:17:07;13.73;;;7.55;;
76745;SDS011;65671;49.976;20.038;2022-12-11T04:19:32;19.50;;;9.13;;
76745;SDS011;65671;49.976;20.038;2022-12-11T04:22:17;14.55;;;6.75;;
76745;SDS011;65671;49.976;20.038;2022-12-11T04:25:01;13.80;;;6.95;;
76745;SDS011;65671;49.976;20.038;2022-12-11T04:27:29;16.08;;;8.38;;
76745;SDS011;65671;49.976;20.038;2022-12-11T04:30:14;15.27;;;6.63;;
76745;SDS011;65671;49.976;20.038;2022-12-11T04:32:43;15.82;;;7.65;;
76745;SDS011;65671;49.976;20.038;2022-12-11T04:35:09;13.40;;;7.25;;
76745;SDS011;65671;49.976;20.038;2022-12-11T04:37:35;13.18;;;7.13;;
76745;SDS011;65671;49.976;20.038;2022-12-11T04:40:02;17.45;;;9.68;;
76745;SDS011;65671;49.976;20.038;2022-12-11T04:42:29;14.50;;;6.75;;
76745;SDS011;65671;49.976;20.038;2022-12-11T04:44:54;13.50;;;7.85;;
76745;SDS011;65671;49.976;20.038;2022-12-11T04:47:19;17.38;;;8.13;;
76745;SDS011;65671;49.976;20.038;2022-12-11T04:49:45;13.05;;;6.78;;
76745;SDS011;65671;49.976;20.038;2022-12-11T04:52:10;11.80;;;6.75;;
76745;SDS011;65671;49.976;20.038;2022-12-11T04:54:36;16.05;;;7.63;;
76745;SDS011;65671;49.976;20.038;2022-12-11T04:57:02;9.18;;;4.80;;
76745;SDS011;65671;49.976;20.038;2022-12-11T04:59:27;10.18;;;6.28;;
76745;SDS011;65671;49.976;20.038;2022-12-11T05:01:52;12.48;;;5.90;;
76745;SDS011;65671;49.976;20.038;2022-12-11T05:04:18;15.55;;;6.70;;
76745;SDS011;65671;49.976;20.038;2022-12-11T05:06:44;10.85;;;5.97;;
76745;SDS011;65671;49.976;20.038;2022-12-11T05:09:10;12.65;;;6.53;;
76745;SDS011;65671;49.976;20.038;2022-12-11T05:11:36;12.98;;;7.03;;
76745;SDS011;65671;49.976;20.038;2022-12-11T05:14:02;13.52;;;7.03;;
76745;SDS011;65671;49.976;20.038;2022-12-11T05:16:27;10.38;;;5.95;;
76745;SDS011;65671;49.976;20.038;2022-12-11T05:18:53;11.43;;;5.07;;
76745;SDS011;65671;49.976;20.038;2022-12-11T05:21:18;11.63;;;5.70;;
76745;SDS011;65671;49.976;20.038;2022-12-11T05:23:44;5.85;;;3.75;;
76745;SDS011;65671;49.976;20.038;2022-12-11T05:26:11;10.95;;;5.70;;
76745;SDS011;65671;49.976;20.038;2022-12-11T05:28:39;11.55;;;6.50;;
76745;SDS011;65671;49.976;20.038;2022-12-11T05:31:06;6.05;;;4.03;;
76745;SDS011;65671;49.976;20.038;2022-12-11T05:33:36;10.32;;;5.43;;
76745;SDS011;65671;49.976;20.038;2022-12-11T05:36:02;12.00;;;6.15;;
76745;SDS011;65671;49.976;20.038;2022-12-11T05:38:27;9.35;;;4.82;;
76745;SDS011;65671;49.976;20.038;2022-12-11T05:41:00;9.18;;;5.32;;
76745;SDS011;65671;49.976;20.038;2022-12-11T05:43:27;10.27;;;5.85;;
76745;SDS011;65671;49.976;20.038;2022-12-11T05:46:04;10.70;;;5.30;;
76745;SDS011;65671;49.976;20.038;2022-12-11T05:48:31;9.27;;;5.43;;
76745;SDS011;65671;49.976;20.038;2022-12-11T05:50:57;10.23;;;6.00;;
76745;SDS011;65671;49.976;20.038;2022-12-11T05:53:23;10.18;;;5.47;;
76745;SDS011;65671;49.976;20.038;2022-12-11T05:55:49;8.35;;;5.07;;
76745;SDS011;65671;49.976;20.038;2022-12-11T05:58:15;9.85;;;5.53;;
76745;SDS011;65671;49.976;20.038;2022-12-11T06:00:41;11.13;;;5.93;;
76745;SDS011;65671;49.976;20.038;2022-12-11T06:03:06;11.10;;;6.22;;
76745;SDS011;65671;49.976;20.038;2022-12-11T06:05:36;11.57;;;5.75;;
76745;SDS011;65671;49.976;20.038;2022-12-11T06:08:03;7.00;;;4.55;;
76745;SDS011;65671;49.976;20.038;2022-12-11T06:10:28;9.70;;;6.00;;
76745;SDS011;65671;49.976;20.038;2022-12-11T06:12:54;10.77;;;5.70;;
76745;SDS011;65671;49.976;20.038;2022-12-11T06:15:19;9.88;;;5.35;;
76745;SDS011;65671;49.976;20.038;2022-12-11T06:17:46;11.90;;;5.97;;
76745;SDS011;65671;49.976;20.038;2022-12-11T06:20:11;8.15;;;5.18;;
76745;SDS011;65671;49.976;20.038;2022-12-11T06:22:37;10.77;;;6.07;;
76745;SDS011;65671;49.976;20.038;2022-12-11T06:25:03;12.18;;;6.65;;
76745;SDS011;65671;49.976;20.038;2022-12-11T06:27:32;11.38;;;6.38;;
76745;SDS011;65671;49.976;20.038;2022-12-11T06:29:57;12.43;;;6.30;;
76745;SDS011;65671;49.976;20.038;2022-12-11T06:32:23;12.07;;;5.78;;
76745;SDS011;65671;49.976;20.038;2022-12-11T06:34:48;13.27;;;6.75;;
76745;SDS011;65671;49.976;20.038;2022-12-11T06:37:14;13.25;;;6.68;;
76745;SDS011;65671;49.976;20.038;2022-12-11T06:39:39;9.85;;;5.40;;
76745;SDS011;65671;49.976;20.038;2022-12-11T06:42:05;11.48;;;5.97;;
76745;SDS011;65671;49.976;20.038;2022-12-11T06:44:30;13.43;;;6.40;;
76745;SDS011;65671;49.976;20.038;2022-12-11T06:46:56;12.20;;;7.35;;
76745;SDS011;65671;49.976;20.038;2022-12-11T06:49:21;11.82;;;6.32;;
76745;SDS011;65671;49.976;20.038;2022-12-11T06:51:47;13.98;;;7.35;;
76745;SDS011;65671;49.976;20.038;2022-12-11T06:54:12;10.43;;;5.72;;
76745;SDS011;65671;49.976;20.038;2022-12-11T06:56:38;5.80;;;3.80;;
76745;SDS011;65671;49.976;20.038;2022-12-11T06:59:03;14.85;;;7.00;;
76745;SDS011;65671;49.976;20.038;2022-12-11T07:01:29;15.68;;;8.32;;
76745;SDS011;65671;49.976;20.038;2022-12-11T07:03:55;13.35;;;6.68;;
76745;SDS011;65671;49.976;20.038;2022-12-11T07:06:22;15.55;;;7.40;;
76745;SDS011;65671;49.976;20.038;2022-12-11T07:08:49;12.90;;;6.25;;
76745;SDS011;65671;49.976;20.038;2022-12-11T07:11:15;16.15;;;8.52;;
76745;SDS011;65671;49.976;20.038;2022-12-11T07:13:41;14.63;;;7.32;;
76745;SDS011;65671;49.976;20.038;2022-12-11T07:16:07;15.20;;;6.25;;
76745;SDS011;65671;49.976;20.038;2022-12-11T07:18:37;12.48;;;6.47;;
76745;SDS011;65671;49.976;20.038;2022-12-11T07:21:08;18.67;;;8.30;;
76745;SDS011;65671;49.976;20.038;2022-12-11T07:23:35;12.05;;;6.63;;
76745;SDS011;65671;49.976;20.038;2022-12-11T07:26:05;13.32;;;7.45;;
76745;SDS011;65671;49.976;20.038;2022-12-11T07:28:35;15.25;;;6.72;;
76745;SDS011;65671;49.976;20.038;2022-12-11T07:31:20;16.95;;;7.85;;
76745;SDS011;65671;49.976;20.038;2022-12-11T07:33:51;17.08;;;6.80;;
76745;SDS011;65671;49.976;20.038;2022-12-11T07:36:21;13.63;;;7.72;;
76745;SDS011;65671;49.976;20.038;2022-12-11T07:38:46;10.70;;;6.43;;
76745;SDS011;65671;49.976;20.038;2022-12-11T07:41:12;15.20;;;7.80;;
76745;SDS011;65671;49.976;20.038;2022-12-11T07:43:39;16.00;;;7.93;;
76745;SDS011;65671;49.976;20.038;2022-12-11T07:46:07;16.52;;;6.50;;
76745;SDS011;65671;49.976;20.038;2022-12-11T07:48:35;11.25;;;6.35;;
76745;SDS011;65671;49.976;20.038;2022-12-11T07:51:17;13.93;;;7.55;;
76745;SDS011;65671;49.976;20.038;2022-12-11T07:53:50;18.20;;;8.27;;
76745;SDS011;65671;49.976;20.038;2022-12-11T07:56:17;15.23;;;7.90;;
76745;SDS011;65671;49.976;20.038;2022-12-11T07:58:44;9.77;;;5.40;;
76745;SDS011;65671;49.976;20.038;2022-12-11T08:01:20;11.95;;;7.55;;
76745;SDS011;65671;49.976;20.038;2022-12-11T08:03:47;16.23;;;8.30;;
76745;SDS011;65671;49.976;20.038;2022-12-11T08:06:13;13.50;;;6.78;;
76745;SDS011;65671;49.976;20.038;2022-12-11T08:08:39;14.18;;;6.90;;
76745;SDS011;65671;49.976;20.038;2022-12-11T08:11:06;12.82;;;6.45;;
76745;SDS011;65671;49.976;20.038;2022-12-11T08:13:34;19.65;;;9.65;;
76745;SDS011;65671;49.976;20.038;2022-12-11T08:16:04;10.55;;;6.00;;
76745;SDS011;65671;49.976;20.038;2022-12-11T08:18:34;16.55;;;8.10;;
76745;SDS011;65671;49.976;20.038;2022-12-11T08:21:11;11.75;;;6.35;;
76745;SDS011;65671;49.976;20.038;2022-12-11T08:23:39;15.00;;;7.00;;
76745;SDS011;65671;49.976;20.038;2022-12-11T08:26:05;17.55;;;7.55;;
76745;SDS011;65671;49.976;20.038;2022-12-11T08:28:33;11.93;;;6.63;;
76745;SDS011;65671;49.976;20.038;2022-12-11T08:30:59;16.85;;;7.65;;
76745;SDS011;65671;49.976;20.038;2022-12-11T08:33:25;16.60;;;8.30;;
76745;SDS011;65671;49.976;20.038;2022-12-11T08:35:50;12.63;;;7.43;;
76745;SDS011;65671;49.976;20.038;2022-12-11T08:38:16;13.93;;;7.43;;
76745;SDS011;65671;49.976;20.038;2022-12-11T08:40:41;18.67;;;7.97;;
76745;SDS011;65671;49.976;20.038;2022-12-11T08:43:07;15.88;;;6.97;;
76745;SDS011;65671;49.976;20.038;2022-12-11T08:45:32;13.60;;;6.35;;
76745;SDS011;65671;49.976;20.038;2022-12-11T08:47:58;17.25;;;7.80;;
76745;SDS011;65671;49.976;20.038;2022-12-11T08:50:24;14.43;;;5.70;;
76745;SDS011;65671;49.976;20.038;2022-12-11T08:52:49;14.38;;;7.65;;
76745;SDS011;65671;49.976;20.038;2022-12-11T08:55:15;14.52;;;6.97;;
76745;SDS011;65671;49.976;20.038;2022-12-11T08:57:40;15.68;;;7.25;;
76745;SDS011;65671;49.976;20.038;2022-12-11T09:00:06;16.15;;;7.40;;
76745;SDS011;65671;49.976;20.038;2022-12-11T09:02:33;15.20;;;7.75;;
76745;SDS011;65671;49.976;20.038;2022-12-11T09:04:59;18.90;;;7.93;;
76745;SDS011;65671;49.976;20.038;2022-12-11T09:07:25;13.45;;;7.38;;
76745;SDS011;65671;49.976;20.038;2022-12-11T09:09:53;17.65;;;9.68;;
76745;SDS011;65671;49.976;20.038;2022-12-11T09:12:19;13.10;;;6.93;;
76745;SDS011;65671;49.976;20.038;2022-12-11T09:14:45;14.65;;;6.20;;
76745;SDS011;65671;49.976;20.038;2022-12-11T09:17:10;16.20;;;8.25;;
76745;SDS011;65671;49.976;20.038;2022-12-11T09:19:36;14.02;;;7.75;;
76745;SDS011;65671;49.976;20.038;2022-12-11T09:22:01;14.55;;;8.25;;
76745;SDS011;65671;49.976;20.038;2022-12-11T09:24:27;15.50;;;6.53;;
76745;SDS011;65671;49.976;20.038;2022-12-11T09:26:52;12.90;;;6.55;;
76745;SDS011;65671;49.976;20.038;2022-12-11T09:31:43;14.47;;;7.00;;
76745;SDS011;65671;49.976;20.038;2022-12-11T09:34:10;16.77;;;7.90;;
76745;SDS011;65671;49.976;20.038;2022-12-11T09:36:37;12.85;;;7.47;;
76745;SDS011;65671;49.976;20.038;2022-12-11T09:39:04;14.88;;;8.07;;
76745;SDS011;65671;49.976;20.038;2022-12-11T09:47:30;12.20;;;7.32;;
76745;SDS011;65671;49.976;20.038;2022-12-11T09:50:05;12.93;;;6.93;;
76745;SDS011;65671;49.976;20.038;2022-12-11T09:55:22;11.13;;;6.47;;
76745;SDS011;65671;49.976;20.038;2022-12-11T09:57:56;13.80;;;7.55;;
76745;SDS011;65671;49.976;20.038;2022-12-11T10:00:32;11.60;;;6.65;;
76745;SDS011;65671;49.976;20.038;2022-12-11T10:05:40;15.63;;;8.88;;
76745;SDS011;65671;49.976;20.038;2022-12-11T10:08:36;13.82;;;6.20;;
76745;SDS011;65671;49.976;20.038;2022-12-11T10:16:47;16.48;;;7.45;;
76745;SDS011;65671;49.976;20.038;2022-12-11T10:19:17;14.82;;;8.30;;
76745;SDS011;65671;49.976;20.038;2022-12-11T10:21:46;16.67;;;8.80;;
76745;SDS011;65671;49.976;20.038;2022-12-11T10:24:22;17.08;;;8.15;;
76745;SDS011;65671;49.976;20.038;2022-12-11T10:26:54;12.35;;;7.13;;
76745;SDS011;65671;49.976;20.038;2022-12-11T10:29:22;12.10;;;6.55;;
76745;SDS011;65671;49.976;20.038;2022-12-11T10:36:53;12.75;;;6.50;;
76745;SDS011;65671;49.976;20.038;2022-12-11T10:41:47;13.00;;;7.03;;
76745;SDS011;65671;49.976;20.038;2022-12-11T10:44:31;17.17;;;8.38;;
76745;SDS011;65671;49.976;20.038;2022-12-11T10:47:02;16.27;;;8.80;;
76745;SDS011;65671;49.976;20.038;2022-12-11T10:49:34;13.60;;;7.43;;
76745;SDS011;65671;49.976;20.038;2022-12-11T10:52:11;15.07;;;7.18;;
76745;SDS011;65671;49.976;20.038;2022-12-11T10:54:44;15.50;;;7.97;;
76745;SDS011;65671;49.976;20.038;2022-12-11T10:57:13;14.48;;;7.40;;
76745;SDS011;65671;49.976;20.038;2022-12-11T10:59:46;13.85;;;7.50;;
76745;SDS011;65671;49.976;20.038;2022-12-11T11:02:56;14.25;;;6.85;;
76745;SDS011;65671;49.976;20.038;2022-12-11T11:05:12;12.95;;;6.40;;
76745;SDS011;65671;49.976;20.038;2022-12-11T11:08:01;9.23;;;5.35;;
76745;SDS011;65671;49.976;20.038;2022-12-11T11:10:54;13.73;;;7.13;;
76745;SDS011;65671;49.976;20.038;2022-12-11T11:13:22;15.85;;;7.80;;
76745;SDS011;65671;49.976;20.038;2022-12-11T11:15:50;13.52;;;7.25;;
76745;SDS011;65671;49.976;20.038;2022-12-11T11:18:36;11.43;;;6.43;;
76745;SDS011;65671;49.976;20.038;2022-12-11T11:21:04;15.07;;;7.82;;
76745;SDS011;65671;49.976;20.038;2022-12-11T11:25:59;11.38;;;6.63;;
76745;SDS011;65671;49.976;20.038;2022-12-11T11:28:33;11.63;;;7.15;;
76745;SDS011;65671;49.976;20.038;2022-12-11T11:31:02;16.27;;;8.27;;
76745;SDS011;65671;49.976;20.038;2022-12-11T11:33:31;16.30;;;8.27;;
76745;SDS011;65671;49.976;20.038;2022-12-11T11:36:00;18.95;;;9.23;;
76745;SDS011;65671;49.976;20.038;2022-12-11T11:38:30;22.63;;;10.55;;
76745;SDS011;65671;49.976;20.038;2022-12-11T11:43:39;17.65;;;10.70;;
76745;SDS011;65671;49.976;20.038;2022-12-11T11:46:13;16.67;;;9.75;;
76745;SDS011;65671;49.976;20.038;2022-12-11T11:48:59;19.02;;;10.30;;
76745;SDS011;65671;49.976;20.038;2022-12-11T11:51:38;22.73;;;11.35;;
76745;SDS011;65671;49.976;20.038;2022-12-11T11:54:38;18.50;;;10.05;;
76745;SDS011;65671;49.976;20.038;2022-12-11T11:57:13;13.43;;;6.80;;
76745;SDS011;65671;49.976;20.038;2022-12-11T11:59:51;17.30;;;9.73;;
76745;SDS011;65671;49.976;20.038;2022-12-11T12:02:20;12.65;;;7.75;;
76745;SDS011;65671;49.976;20.038;2022-12-11T12:04:46;11.32;;;7.05;;
76745;SDS011;65671;49.976;20.038;2022-12-11T12:10:02;19.15;;;10.45;;
76745;SDS011;65671;49.976;20.038;2022-12-11T12:15:14;23.50;;;11.50;;
76745;SDS011;65671;49.976;20.038;2022-12-11T12:17:56;18.70;;;10.05;;
76745;SDS011;65671;49.976;20.038;2022-12-11T12:27:00;15.63;;;8.57;;
76745;SDS011;65671;49.976;20.038;2022-12-11T12:35:15;17.75;;;8.88;;
76745;SDS011;65671;49.976;20.038;2022-12-11T12:46:16;21.90;;;11.52;;
76745;SDS011;65671;49.976;20.038;2022-12-11T12:49:02;22.63;;;11.73;;
76745;SDS011;65671;49.976;20.038;2022-12-11T12:51:31;13.57;;;8.18;;
76745;SDS011;65671;49.976;20.038;2022-12-11T12:54:00;12.73;;;6.60;;
76745;SDS011;65671;49.976;20.038;2022-12-11T12:56:28;22.27;;;10.52;;
76745;SDS011;65671;49.976;20.038;2022-12-11T12:58:55;19.90;;;9.23;;
76745;SDS011;65671;49.976;20.038;2022-12-11T13:01:22;18.67;;;9.68;;
76745;SDS011;65671;49.976;20.038;2022-12-11T13:06:38;19.83;;;11.27;;
76745;SDS011;65671;49.976;20.038;2022-12-11T13:09:23;17.30;;;8.45;;
76745;SDS011;65671;49.976;20.038;2022-12-11T13:11:51;18.08;;;9.60;;
76745;SDS011;65671;49.976;20.038;2022-12-11T13:14:30;17.30;;;9.77;;
76745;SDS011;65671;49.976;20.038;2022-12-11T13:17:05;18.10;;;9.82;;
76745;SDS011;65671;49.976;20.038;2022-12-11T13:19:46;12.23;;;5.88;;
76745;SDS011;65671;49.976;20.038;2022-12-11T13:30:18;14.02;;;8.02;;
76745;SDS011;65671;49.976;20.038;2022-12-11T13:33:05;19.08;;;9.57;;
76745;SDS011;65671;49.976;20.038;2022-12-11T13:35:39;17.33;;;9.15;;
76745;SDS011;65671;49.976;20.038;2022-12-11T13:38:06;14.75;;;7.95;;
76745;SDS011;65671;49.976;20.038;2022-12-11T13:40:39;21.42;;;10.77;;
76745;SDS011;65671;49.976;20.038;2022-12-11T13:43:14;15.98;;;9.75;;
76745;SDS011;65671;49.976;20.038;2022-12-11T13:45:44;20.20;;;10.73;;
76745;SDS011;65671;49.976;20.038;2022-12-11T13:48:23;21.73;;;10.70;;
76745;SDS011;65671;49.976;20.038;2022-12-11T13:50:53;16.23;;;8.70;;
76745;SDS011;65671;49.976;20.038;2022-12-11T13:53:20;19.67;;;9.00;;
76745;SDS011;65671;49.976;20.038;2022-12-11T13:55:54;16.95;;;9.25;;
76745;SDS011;65671;49.976;20.038;2022-12-11T13:58:21;20.83;;;11.32;;
76745;SDS011;65671;49.976;20.038;2022-12-11T14:01:05;16.85;;;8.57;;
76745;SDS011;65671;49.976;20.038;2022-12-11T14:03:32;25.63;;;12.35;;
76745;SDS011;65671;49.976;20.038;2022-12-11T14:08:32;23.27;;;11.15;;
76745;SDS011;65671;49.976;20.038;2022-12-11T14:11:00;14.95;;;8.13;;
76745;SDS011;65671;49.976;20.038;2022-12-11T14:13:30;17.73;;;9.75;;
76745;SDS011;65671;49.976;20.038;2022-12-11T14:15:58;15.43;;;8.05;;
76745;SDS011;65671;49.976;20.038;2022-12-11T14:18:25;21.25;;;10.40;;
76745;SDS011;65671;49.976;20.038;2022-12-11T14:20:54;14.80;;;7.97;;
76745;SDS011;65671;49.976;20.038;2022-12-11T14:23:36;11.27;;;7.22;;
76745;SDS011;65671;49.976;20.038;2022-12-11T14:26:03;21.95;;;9.63;;
76745;SDS011;65671;49.976;20.038;2022-12-11T14:28:41;18.50;;;9.55;;
76745;SDS011;65671;49.976;20.038;2022-12-11T14:31:07;23.55;;;10.50;;
76745;SDS011;65671;49.976;20.038;2022-12-11T14:33:37;16.63;;;9.45;;
76745;SDS011;65671;49.976;20.038;2022-12-11T14:36:07;13.73;;;7.40;;
76745;SDS011;65671;49.976;20.038;2022-12-11T14:38:34;16.10;;;8.40;;
76745;SDS011;65671;49.976;20.038;2022-12-11T14:41:11;15.13;;;7.82;;
76745;SDS011;65671;49.976;20.038;2022-12-11T14:43:44;15.52;;;8.45;;
76745;SDS011;65671;49.976;20.038;2022-12-11T14:46:35;20.17;;;9.50;;
76745;SDS011;65671;49.976;20.038;2022-12-11T14:49:06;13.93;;;7.63;;
76745;SDS011;65671;49.976;20.038;2022-12-11T14:51:48;17.80;;;8.93;;
76745;SDS011;65671;49.976;20.038;2022-12-11T14:54:31;25.67;;;10.65;;
76745;SDS011;65671;49.976;20.038;2022-12-11T14:57:02;24.50;;;12.13;;
76745;SDS011;65671;49.976;20.038;2022-12-11T14:59:31;25.00;;;11.88;;
76745;SDS011;65671;49.976;20.038;2022-12-11T15:02:20;23.55;;;10.18;;
76745;SDS011;65671;49.976;20.038;2022-12-11T15:05:01;25.02;;;11.35;;
76745;SDS011;65671;49.976;20.038;2022-12-11T15:07:27;24.83;;;11.45;;
76745;SDS011;65671;49.976;20.038;2022-12-11T15:09:52;32.55;;;14.98;;
76745;SDS011;65671;49.976;20.038;2022-12-11T15:12:18;37.25;;;14.77;;
76745;SDS011;65671;49.976;20.038;2022-12-11T15:14:46;16.08;;;10.25;;
76745;SDS011;65671;49.976;20.038;2022-12-11T15:17:15;18.30;;;8.52;;
76745;SDS011;65671;49.976;20.038;2022-12-11T15:19:45;17.23;;;9.60;;
76745;SDS011;65671;49.976;20.038;2022-12-11T15:24:41;19.23;;;9.55;;
76745;SDS011;65671;49.976;20.038;2022-12-11T15:27:53;20.15;;;9.57;;
76745;SDS011;65671;49.976;20.038;2022-12-11T15:35:35;26.42;;;11.20;;
76745;SDS011;65671;49.976;20.038;2022-12-11T15:38:02;28.20;;;12.00;;
76745;SDS011;65671;49.976;20.038;2022-12-11T15:40:27;22.88;;;10.68;;
76745;SDS011;65671;49.976;20.038;2022-12-11T15:42:53;32.70;;;15.05;;
76745;SDS011;65671;49.976;20.038;2022-12-11T15:47:47;21.58;;;10.68;;
76745;SDS011;65671;49.976;20.038;2022-12-11T15:50:18;29.85;;;14.65;;
76745;SDS011;65671;49.976;20.038;2022-12-11T15:52:44;29.00;;;13.60;;
76745;SDS011;65671;49.976;20.038;2022-12-11T15:55:10;31.58;;;14.70;;
76745;SDS011;65671;49.976;20.038;2022-12-11T15:57:36;26.35;;;12.27;;
76745;SDS011;65671;49.976;20.038;2022-12-11T16:00:02;25.65;;;11.68;;
76745;SDS011;65671;49.976;20.038;2022-12-11T16:02:30;34.17;;;14.30;;
76745;SDS011;65671;49.976;20.038;2022-12-11T16:04:56;19.42;;;9.13;;
76745;SDS011;65671;49.976;20.038;2022-12-11T16:07:23;22.85;;;13.23;;
76745;SDS011;65671;49.976;20.038;2022-12-11T16:09:50;27.58;;;14.25;;
76745;SDS011;65671;49.976;20.038;2022-12-11T16:12:16;25.58;;;12.00;;
76745;SDS011;65671;49.976;20.038;2022-12-11T16:14:43;28.70;;;11.75;;
76745;SDS011;65671;49.976;20.038;2022-12-11T16:17:10;25.92;;;12.27;;